createdAt,value
2023-02-05T00:03:45.471Z,14.15
2023-02-05T00:08:47.999Z,26.58
2023-02-05T00:13:50.395Z,17.45
2023-02-05T00:18:53.372Z,18.02
2023-02-05T00:23:55.697Z,13.85
2023-02-05T00:28:58.013Z,16.33
2023-02-05T00:34:00.442Z,14.18
2023-02-05T00:53:10.563Z,9.07
2023-02-05T00:58:13.112Z,16.00
2023-02-05T01:03:15.423Z,10.60
2023-02-05T01:08:17.623Z,27.00
2023-02-05T01:13:20.095Z,28.77
2023-02-05T01:18:22.375Z,10.35
2023-02-05T01:23:24.539Z,15.48
2023-02-05T01:28:26.724Z,13.73
2023-02-05T01:33:29.670Z,12.20
2023-02-05T01:38:31.810Z,17.75
2023-02-05T01:43:34.147Z,14.63
2023-02-05T01:48:42.602Z,20.73
2023-02-05T01:53:46.728Z,5.78
2023-02-05T01:58:57.359Z,11.27
2023-02-05T02:04:04.924Z,18.70
2023-02-05T02:09:08.407Z,27.35
2023-02-05T02:14:12.420Z,7.35
2023-02-05T02:19:23.968Z,4.88
2023-02-05T02:25:40.257Z,4.25
2023-02-05T02:31:14.155Z,4.88
2023-02-05T02:36:25.567Z,7.22
2023-02-05T02:41:37.750Z,10.85
2023-02-05T02:46:49.111Z,17.60
2023-02-05T02:51:52.679Z,16.85
2023-02-05T02:56:58.123Z,15.90
2023-02-05T03:02:04.935Z,13.23
2023-02-05T03:07:35.291Z,11.13
2023-02-05T03:12:40.329Z,9.95
2023-02-05T03:17:44.055Z,11.63
2023-02-05T03:22:46.632Z,10.10
2023-02-05T03:27:52.305Z,10.10
2023-02-05T03:33:32.375Z,20.13
2023-02-05T03:38:58.593Z,16.52
2023-02-05T03:44:24.199Z,20.20
2023-02-05T03:50:00.116Z,30.67
2023-02-05T03:55:05.568Z,18.73
2023-02-05T04:00:10.232Z,21.95
2023-02-05T04:05:23.206Z,10.18
2023-02-05T04:10:28.412Z,33.35
2023-02-05T04:15:34.238Z,25.92
2023-02-05T04:20:40.430Z,27.92
2023-02-05T04:25:44.621Z,17.67
2023-02-05T04:30:51.529Z,17.75
2023-02-05T04:35:59.282Z,19.70
2023-02-05T04:41:51.495Z,15.82
2023-02-05T04:46:53.922Z,15.70
2023-02-05T04:51:56.329Z,20.08
2023-02-05T04:56:58.670Z,12.93
2023-02-05T05:02:01.053Z,11.10
2023-02-05T05:07:03.892Z,11.35
2023-02-05T05:12:06.650Z,12.50
2023-02-05T05:17:08.840Z,84.25
2023-02-05T05:22:11.263Z,128.85
2023-02-05T05:27:13.641Z,71.97
2023-02-05T05:32:15.914Z,99.03
2023-02-05T05:37:18.329Z,31.90
2023-02-05T05:42:39.168Z,15.60
2023-02-05T05:52:43.395Z,11.48
2023-02-05T05:57:45.662Z,26.77
2023-02-05T06:02:47.926Z,11.02
2023-02-05T06:07:50.108Z,11.35
2023-02-05T06:12:55.544Z,15.40
2023-02-05T06:17:57.822Z,18.65
2023-02-05T06:23:00.467Z,9.27
2023-02-05T06:28:03.118Z,10.82
2023-02-05T06:33:05.716Z,9.02
2023-02-05T06:38:08.398Z,8.50
2023-02-05T06:43:10.591Z,79.18
2023-02-05T06:48:27.787Z,78.35
2023-02-05T06:53:32.049Z,12.77
2023-02-05T06:58:34.648Z,36.85
2023-02-05T07:03:37.100Z,14.80
2023-02-05T07:08:39.358Z,18.83
2023-02-05T07:13:41.522Z,9.85
2023-02-05T07:18:43.863Z,8.80
2023-02-05T07:23:46.113Z,9.10
2023-02-05T07:28:48.378Z,11.07
2023-02-05T07:33:51.065Z,10.60
2023-02-05T07:38:53.249Z,15.35
2023-02-05T07:43:55.374Z,22.10
2023-02-05T07:48:57.726Z,55.22
2023-02-05T07:53:59.856Z,87.60
2023-02-05T07:59:02.315Z,34.60
2023-02-05T08:04:04.968Z,17.33
2023-02-05T08:09:07.402Z,60.10
2023-02-05T08:14:09.641Z,39.10
2023-02-05T08:19:16.583Z,27.38
2023-02-05T08:24:19.041Z,12.15
2023-02-05T08:29:21.250Z,15.73
2023-02-05T08:34:23.704Z,13.48
2023-02-05T08:39:26.465Z,23.27
2023-02-05T08:44:29.552Z,13.32
2023-02-05T08:49:31.811Z,13.23
2023-02-05T08:54:34.187Z,15.90
2023-02-05T08:59:36.334Z,23.80
2023-02-05T09:04:39.593Z,11.05
2023-02-05T09:09:45.177Z,15.40
2023-02-05T09:14:47.324Z,14.30
2023-02-05T09:19:49.454Z,15.20
2023-02-05T09:24:51.751Z,49.97
2023-02-05T09:29:53.915Z,137.35
2023-02-05T09:34:56.339Z,21.00
2023-02-05T09:45:42.600Z,20.50
2023-02-05T09:50:45.210Z,21.65
2023-02-05T09:55:48.477Z,10.63
2023-02-05T10:00:55.797Z,9.90
2023-02-05T10:06:16.609Z,9.07
2023-02-05T10:11:40.858Z,8.48
2023-02-05T10:17:07.293Z,12.00
2023-02-05T10:22:26.990Z,21.63
2023-02-05T10:28:03.929Z,33.20
2023-02-05T10:33:30.929Z,19.92
2023-02-05T10:38:38.300Z,51.08
2023-02-05T10:43:46.677Z,57.50
2023-02-05T10:48:59.910Z,37.42
2023-02-05T10:54:02.409Z,24.55
2023-02-05T10:59:06.381Z,22.40
2023-02-05T11:04:15.547Z,29.98
2023-02-05T11:09:27.183Z,33.22
2023-02-05T11:14:41.319Z,20.83
2023-02-05T11:19:54.478Z,20.70
2023-02-05T11:25:13.729Z,25.15
2023-02-05T11:30:56.114Z,33.72
2023-02-05T11:36:14.280Z,24.45
2023-02-05T11:41:48.599Z,20.08
2023-02-05T11:46:57.110Z,24.23
2023-02-05T11:52:01.918Z,13.23
2023-02-05T11:57:22.568Z,18.30
2023-02-05T12:02:30.641Z,26.73
2023-02-05T12:07:41.465Z,24.08
2023-02-05T12:13:06.973Z,17.15
2023-02-05T12:18:26.975Z,23.42
2023-02-05T12:23:59.832Z,23.45
2023-02-05T12:29:05.182Z,31.50
2023-02-05T12:34:36.256Z,39.05
2023-02-05T12:50:58.500Z,44.53
2023-02-05T12:56:07.035Z,14.07
2023-02-05T13:01:15.237Z,43.05
2023-02-05T13:06:20.571Z,8.13
2023-02-05T13:11:31.113Z,52.33
2023-02-05T13:16:45.098Z,14.50
2023-02-05T13:22:06.114Z,16.98
2023-02-05T13:33:00.609Z,13.43
2023-02-05T13:38:17.726Z,19.48
2023-02-05T13:43:38.452Z,33.63
2023-02-05T13:49:02.726Z,14.88
2023-02-05T13:54:23.509Z,77.35
2023-02-05T13:59:51.772Z,22.02
2023-02-05T14:04:55.033Z,15.93
2023-02-05T14:10:02.947Z,48.35
2023-02-05T14:15:21.232Z,22.75
2023-02-05T14:20:26.518Z,33.90
2023-02-05T14:26:07.495Z,213.38
2023-02-05T14:31:45.804Z,58.05
2023-02-05T14:36:48.200Z,43.85
2023-02-05T14:41:56.242Z,26.50
2023-02-05T14:47:08.923Z,30.60
2023-02-05T14:52:31.574Z,26.13
2023-02-05T14:57:40.137Z,43.42
2023-02-05T15:03:10.195Z,49.08
2023-02-05T15:08:48.086Z,31.02
2023-02-05T15:14:35.640Z,44.30
2023-02-05T15:19:50.342Z,64.85
2023-02-05T15:24:54.056Z,35.55
2023-02-05T15:29:57.516Z,170.35
2023-02-05T15:35:14.580Z,384.50
2023-02-05T15:40:25.326Z,437.77
2023-02-05T15:50:56.643Z,72.43
2023-02-05T15:56:07.429Z,84.53
2023-02-05T16:01:09.858Z,98.95
2023-02-05T16:06:20.059Z,87.55
2023-02-05T16:11:34.378Z,35.08
2023-02-05T16:16:39.941Z,40.10
2023-02-05T16:21:48.517Z,36.10
2023-02-05T16:41:40.868Z,24.63
2023-02-05T16:46:43.155Z,20.10
2023-02-05T16:51:48.225Z,25.80
2023-02-05T16:57:16.599Z,26.48
2023-02-05T17:02:33.731Z,28.30
2023-02-05T17:07:36.835Z,18.90
2023-02-05T17:12:46.920Z,25.67
2023-02-05T17:17:55.076Z,28.77
2023-02-05T17:23:03.724Z,31.35
2023-02-05T17:28:08.184Z,31.73
2023-02-05T17:33:15.455Z,20.98
2023-02-05T17:38:18.302Z,30.75
2023-02-05T17:43:40.891Z,22.10
2023-02-05T17:48:44.857Z,29.42
2023-02-05T17:53:56.794Z,27.00
2023-02-05T17:59:02.044Z,28.75
2023-02-05T18:04:04.245Z,28.48
2023-02-05T18:09:07.100Z,27.98
2023-02-05T18:14:09.935Z,38.60
2023-02-05T18:19:14.751Z,43.92
2023-02-05T18:24:17.135Z,56.30
2023-02-05T18:29:21.754Z,36.97
2023-02-05T18:34:24.309Z,60.05
2023-02-05T18:39:29.057Z,61.80
2023-02-05T18:44:33.078Z,40.15
2023-02-05T18:49:35.483Z,50.83
2023-02-05T18:54:37.688Z,57.20
2023-02-05T18:59:40.981Z,66.60
2023-02-05T19:04:44.691Z,104.68
2023-02-05T19:09:46.881Z,39.40
2023-02-05T19:14:49.951Z,51.47
2023-02-05T19:19:52.454Z,43.33
2023-02-05T19:24:55.757Z,61.10
2023-02-05T19:35:49.179Z,35.20
2023-02-05T19:40:51.852Z,74.75
2023-02-05T19:45:55.448Z,92.85
2023-02-05T19:51:03.930Z,34.15
2023-02-05T19:56:07.816Z,63.58
2023-02-05T20:01:23.917Z,71.70
2023-02-05T20:06:29.721Z,63.33
2023-02-05T20:11:35.605Z,36.58
2023-02-05T20:16:40.689Z,71.20
2023-02-05T20:21:44.344Z,67.35
2023-02-05T20:26:50.564Z,74.97
2023-02-05T20:32:02.237Z,112.75
2023-02-05T20:37:21.132Z,65.55
2023-02-05T20:42:26.374Z,79.70
2023-02-05T20:47:28.947Z,54.05
2023-02-05T20:52:31.552Z,28.52
2023-02-05T20:57:33.822Z,59.38
2023-02-05T21:02:39.005Z,39.53
2023-02-05T21:07:41.512Z,46.95
2023-02-05T21:12:43.746Z,115.93
2023-02-05T21:17:45.939Z,97.53
2023-02-05T21:22:48.246Z,53.28
2023-02-05T21:27:51.065Z,96.15
2023-02-05T21:32:53.698Z,113.28
2023-02-05T21:37:55.903Z,135.68
2023-02-05T21:42:58.206Z,252.18
2023-02-05T21:48:00.667Z,55.47
2023-02-05T21:53:02.892Z,54.50
2023-02-05T21:58:05.084Z,82.05
2023-02-05T22:03:07.467Z,78.82
2023-02-05T22:08:11.802Z,86.88
2023-02-05T22:13:14.284Z,57.95
2023-02-05T22:18:19.040Z,83.35
2023-02-05T22:23:21.403Z,49.00
2023-02-05T22:28:23.646Z,11.30
2023-02-05T22:33:25.832Z,7.68
2023-02-05T22:38:30.533Z,7.10
2023-02-05T22:43:32.876Z,7.45
2023-02-05T22:48:40.611Z,6.03
2023-02-05T22:53:43.523Z,7.03
2023-02-05T22:58:47.831Z,7.20
2023-02-05T23:03:52.195Z,7.55
2023-02-05T23:08:57.657Z,7.25
2023-02-05T23:14:01.128Z,10.45
2023-02-05T23:19:07.676Z,6.90
2023-02-05T23:24:10.489Z,8.65
2023-02-05T23:29:15.894Z,5.32
2023-02-05T23:34:18.340Z,6.38
2023-02-05T23:39:20.835Z,7.07
2023-02-05T23:44:23.237Z,7.45
2023-02-05T23:49:25.786Z,6.47
2023-02-05T23:54:28.090Z,5.72
2023-02-05T23:59:30.625Z,6.50
